CMA CGM Volga — 5BJR2 — position and weather

sailwx.info

Track history (hours):
 
Tides and Currents Weather Stations Pressure Air Temp Water Temp Dewpoint Dewpoint Depression Visibility Wind Speed Wind Dir Waves Ship Positions

CMA CGM Volga

Last reported at 2017-Mar-22 16:30 UTC. Time now 2017-Mar-23 06:13 UTC.
Position N 55°00' E 019°04'.

Length 184 m; draft 8.2 m.

Type: Ship (hazmat cat A). MMSI: 212456000.

Date/timePositionNaut miles runAvg speedWind from/ knotsBaromVisibWave heightAir tempDewpointWater temp
2017-Mar-22 16:30N 55°00' E 019°04'1213.1
2017-Mar-22 15:34N 54°48' E 019°06'1313.2
2017-Mar-22 14:34N 54°35' E 019°06'1212.5
2017-Mar-22 13:33N 54°25' E 018°52'5 5.2
2017-Mar-22 12:33N 54°23' E 018°43'0 0.0
2017-Mar-22 11:33N 54°23' E 018°43'0 0.0
2017-Mar-22 10:33N 54°23' E 018°43'0 0.0
2017-Mar-22 09:33N 54°23' E 018°43'0 0.0
2017-Mar-22 08:33N 54°23' E 018°43'0 0.0
2017-Mar-22 07:33N 54°23' E 018°43'0 0.0
2017-Mar-22 06:30N 54°23' E 018°43'0 0.0
2017-Mar-22 05:33N 54°23' E 018°43'0 0.0
2017-Mar-22 04:33N 54°23' E 018°43'0 0.0
2017-Mar-22 03:33N 54°23' E 018°43'0 0.0
2017-Mar-22 02:33N 54°23' E 018°43'0 0.0
2017-Mar-22 01:33N 54°23' E 018°43'0 0.0
2017-Mar-22 00:33N 54°23' E 018°43'0 0.0
2017-Mar-21 23:33N 54°23' E 018°43'0 0.0
2017-Mar-21 22:33N 54°23' E 018°43'0 0.0
2017-Mar-21 21:30N 54°23' E 018°43'0 0.0
2017-Mar-21 20:30N 54°23' E 018°43'1 1.3
2017-Mar-21 19:33N 54°24' E 018°45'6 6.2
2017-Mar-21 18:33N 54°27' E 018°54'2 1.7
2017-Mar-21 17:33N 54°28' E 018°57'2 1.5
2017-Mar-21 16:33N 54°29' E 018°58'9 8.7
2017-Mar-21 15:33N 54°37' E 019°04'1413.9
2017-Mar-21 14:33N 54°51' E 019°02'1413.6
2017-Mar-21 13:33N 55°04' E 019°03'1313.2
2017-Mar-21 12:34N 55°17' E 019°02'1312.5
2017-Mar-21 11:33N 55°30' E 019°04'  
2017-Mar-19 04:24N 59°37' E 023°18'1313.7
2017-Mar-19 03:26N 59°40' E 023°43'313 7.2
2017-Mar-17 08:11N 55°06' E 019°02'1016.1
2017-Mar-17 07:33N 54°56' E 019°03'1414.0
2017-Mar-17 06:33N 54°42' E 019°05'1312.9
2017-Mar-17 05:33N 54°29' E 019°02'9 8.7
2017-Mar-17 04:33N 54°25' E 018°49'4 3.7
2017-Mar-17 03:30N 54°23' E 018°43'0 0.0
2017-Mar-17 02:33N 54°23' E 018°43'0 0.0
2017-Mar-17 01:33N 54°23' E 018°43'0 0.0
2017-Mar-17 00:33N 54°23' E 018°43'0 0.0
2017-Mar-16 23:33N 54°23' E 018°43'0 0.0
2017-Mar-16 22:33N 54°23' E 018°43'0 0.0
2017-Mar-16 21:27N 54°23' E 018°43'0 0.0
2017-Mar-16 20:33N 54°23' E 018°43'0 0.0
2017-Mar-16 19:33N 54°23' E 018°43'0 0.0
2017-Mar-16 18:33N 54°23' E 018°43'0 0.0
2017-Mar-16 17:33N 54°23' E 018°43'0 0.0
2017-Mar-16 16:27N 54°23' E 018°43'0 0.0
2017-Mar-16 15:33N 54°23' E 018°43'0 0.0
2017-Mar-16 14:33N 54°23' E 018°43'0 0.0
2017-Mar-16 13:33N 54°23' E 018°43'0 0.0
2017-Mar-16 12:33N 54°23' E 018°43'0 0.0
2017-Mar-16 11:33N 54°23' E 018°43'0 0.0
2017-Mar-16 10:33N 54°23' E 018°43'0 0.0
2017-Mar-16 09:33N 54°23' E 018°43'0 0.0
2017-Mar-16 08:33N 54°23' E 018°43'6 6.3
2017-Mar-16 07:34N 54°26' E 018°53'1212.0
2017-Mar-16 06:34N 54°36' E 019°04'1414.0
2017-Mar-16 05:33N 54°50' E 019°03'1414.0
2017-Mar-16 04:34N 55°04' E 019°02'30912.3
2017-Mar-15 03:26N 59°38' E 023°28'8611.9
2017-Mar-14 20:09N 59°59' E 026°15'812.7
2017-Mar-14 19:33N 60°01' E 026°29'1312.9
2017-Mar-14 18:33N 59°60' E 026°55'2912.2
2017-Mar-14 16:10N 60°09' E 027°50'812.1
2017-Mar-14 15:33N 60°09' E 028°05'1312.8
2017-Mar-14 14:32N 60°03' E 028°28'3113.0
2017-Mar-14 12:10N 60°02' E 029°30'2 3.7
2017-Mar-14 11:32N 60°01' E 029°35'8 8.3
2017-Mar-14 10:33N 59°57' E 029°49'1010.5
2017-Mar-14 09:33N 59°54' E 030°09'2 1.4
2017-Mar-14 08:20N 59°53' E 030°12'0 0.0
2017-Mar-14 07:32N 59°53' E 030°12'0 0.0
2017-Mar-14 06:23N 59°53' E 030°12'0 0.0
2017-Mar-14 05:32N 59°53' E 030°12'0 0.0
2017-Mar-14 04:17N 59°53' E 030°12'0 0.0
2017-Mar-14 03:23N 59°53' E 030°12'0 0.0
2017-Mar-14 02:29N 59°53' E 030°12'0 0.0
2017-Mar-14 01:29N 59°53' E 030°12'0 0.0
2017-Mar-14 00:29N 59°53' E 030°12'0 0.0
2017-Mar-13 23:23N 59°53' E 030°12'0 0.0
2017-Mar-13 22:32N 59°53' E 030°12'0 0.0
2017-Mar-13 21:29N 59°53' E 030°12'0 0.0
2017-Mar-13 20:32N 59°53' E 030°12'0 0.0
2017-Mar-13 19:32N 59°53' E 030°12'0 0.0
2017-Mar-13 18:26N 59°53' E 030°12'0 0.0
2017-Mar-13 17:32N 59°53' E 030°12'0 0.0
2017-Mar-13 16:26N 59°53' E 030°12'0 0.0
2017-Mar-13 15:23N 59°53' E 030°12'0 0.0
2017-Mar-13 14:32N 59°53' E 030°12'0 0.0
2017-Mar-13 13:29N 59°53' E 030°12'0 0.0
2017-Mar-13 12:32N 59°53' E 030°12'0 0.0
2017-Mar-13 11:32N 59°53' E 030°12'0 0.0
2017-Mar-13 09:29N 59°53' E 030°12'0 0.0
2017-Mar-13 08:32N 59°53' E 030°12'0 0.0
2017-Mar-13 07:32N 59°53' E 030°12'0 0.0
2017-Mar-13 06:32N 59°53' E 030°12'0 0.0
2017-Mar-13 05:23N 59°53' E 030°12'0 0.0
2017-Mar-13 04:32N 59°53' E 030°12'0 0.0
2017-Mar-13 03:34N 59°53' E 030°12'2 1.8
2017-Mar-13 02:33N 59°54' E 030°09'1110.7
2017-Mar-13 01:33N 59°58' E 029°48'9 8.9
2017-Mar-13 00:31N 60°01' E 029°32'4 3.8
2017-Mar-12 23:30N 60°03' E 029°25'1 0.4
2017-Mar-12 22:09N 60°03' E 029°24'0 0.1
2017-Mar-12 21:32N 60°03' E 029°24'2 1.6
2017-Mar-12 20:17N 60°01' E 029°23'  
Track history (hours):
 
Tides and Currents Weather Stations Pressure Air Temp Water Temp Dewpoint Dewpoint Depression Visibility Wind Speed Wind Dir Waves Ship Positions

CMA CGM Volga

Last reported at 2017-Mar-22 16:30 UTC. Time now 2017-Mar-23 06:13 UTC.
Position N 55°00' E 019°04'.

Length 184 m; draft 8.2 m.

Type: Ship (hazmat cat A). MMSI: 212456000.

Date/timePositionNaut miles runAvg speedWind from/ knotsBaromVisibWave heightAir tempDewpointWater temp
2017-Mar-22 16:30N 55°00' E 019°04'1213.1
2017-Mar-22 15:34N 54°48' E 019°06'1313.2
2017-Mar-22 14:34N 54°35' E 019°06'1212.5
2017-Mar-22 13:33N 54°25' E 018°52'5 5.2
2017-Mar-22 12:33N 54°23' E 018°43'0 0.0
2017-Mar-22 11:33N 54°23' E 018°43'0 0.0
2017-Mar-22 10:33N 54°23' E 018°43'0 0.0
2017-Mar-22 09:33N 54°23' E 018°43'0 0.0
2017-Mar-22 08:33N 54°23' E 018°43'0 0.0
2017-Mar-22 07:33N 54°23' E 018°43'0 0.0
2017-Mar-22 06:30N 54°23' E 018°43'0 0.0
2017-Mar-22 05:33N 54°23' E 018°43'0 0.0
2017-Mar-22 04:33N 54°23' E 018°43'0 0.0
2017-Mar-22 03:33N 54°23' E 018°43'0 0.0
2017-Mar-22 02:33N 54°23' E 018°43'0 0.0
2017-Mar-22 01:33N 54°23' E 018°43'0 0.0
2017-Mar-22 00:33N 54°23' E 018°43'0 0.0
2017-Mar-21 23:33N 54°23' E 018°43'0 0.0
2017-Mar-21 22:33N 54°23' E 018°43'0 0.0
2017-Mar-21 21:30N 54°23' E 018°43'0 0.0
2017-Mar-21 20:30N 54°23' E 018°43'1 1.3
2017-Mar-21 19:33N 54°24' E 018°45'6 6.2
2017-Mar-21 18:33N 54°27' E 018°54'2 1.7
2017-Mar-21 17:33N 54°28' E 018°57'2 1.5
2017-Mar-21 16:33N 54°29' E 018°58'9 8.7
2017-Mar-21 15:33N 54°37' E 019°04'1413.9
2017-Mar-21 14:33N 54°51' E 019°02'1413.6
2017-Mar-21 13:33N 55°04' E 019°03'1313.2
2017-Mar-21 12:34N 55°17' E 019°02'1312.5
2017-Mar-21 11:33N 55°30' E 019°04'  
2017-Mar-19 04:24N 59°37' E 023°18'1313.7
2017-Mar-19 03:26N 59°40' E 023°43'313 7.2
2017-Mar-17 08:11N 55°06' E 019°02'1016.1
2017-Mar-17 07:33N 54°56' E 019°03'1414.0
2017-Mar-17 06:33N 54°42' E 019°05'1312.9
2017-Mar-17 05:33N 54°29' E 019°02'9 8.7
2017-Mar-17 04:33N 54°25' E 018°49'4 3.7
2017-Mar-17 03:30N 54°23' E 018°43'0 0.0
2017-Mar-17 02:33N 54°23' E 018°43'0 0.0
2017-Mar-17 01:33N 54°23' E 018°43'0 0.0
2017-Mar-17 00:33N 54°23' E 018°43'0 0.0
2017-Mar-16 23:33N 54°23' E 018°43'0 0.0
2017-Mar-16 22:33N 54°23' E 018°43'0 0.0
2017-Mar-16 21:27N 54°23' E 018°43'0 0.0
2017-Mar-16 20:33N 54°23' E 018°43'0 0.0
2017-Mar-16 19:33N 54°23' E 018°43'0 0.0
2017-Mar-16 18:33N 54°23' E 018°43'0 0.0
2017-Mar-16 17:33N 54°23' E 018°43'0 0.0
2017-Mar-16 16:27N 54°23' E 018°43'0 0.0
2017-Mar-16 15:33N 54°23' E 018°43'0 0.0
2017-Mar-16 14:33N 54°23' E 018°43'0 0.0
2017-Mar-16 13:33N 54°23' E 018°43'0 0.0
2017-Mar-16 12:33N 54°23' E 018°43'0 0.0
2017-Mar-16 11:33N 54°23' E 018°43'0 0.0
2017-Mar-16 10:33N 54°23' E 018°43'0 0.0
2017-Mar-16 09:33N 54°23' E 018°43'0 0.0
2017-Mar-16 08:33N 54°23' E 018°43'6 6.3
2017-Mar-16 07:34N 54°26' E 018°53'1212.0
2017-Mar-16 06:34N 54°36' E 019°04'1414.0
2017-Mar-16 05:33N 54°50' E 019°03'1414.0
2017-Mar-16 04:34N 55°04' E 019°02'30912.3
2017-Mar-15 03:26N 59°38' E 023°28'8611.9
2017-Mar-14 20:09N 59°59' E 026°15'812.7
2017-Mar-14 19:33N 60°01' E 026°29'1312.9
2017-Mar-14 18:33N 59°60' E 026°55'2912.2
2017-Mar-14 16:10N 60°09' E 027°50'812.1
2017-Mar-14 15:33N 60°09' E 028°05'1312.8
2017-Mar-14 14:32N 60°03' E 028°28'3113.0
2017-Mar-14 12:10N 60°02' E 029°30'2 3.7
2017-Mar-14 11:32N 60°01' E 029°35'8 8.3
2017-Mar-14 10:33N 59°57' E 029°49'1010.5
2017-Mar-14 09:33N 59°54' E 030°09'2 1.4
2017-Mar-14 08:20N 59°53' E 030°12'0 0.0
2017-Mar-14 07:32N 59°53' E 030°12'0 0.0
2017-Mar-14 06:23N 59°53' E 030°12'0 0.0
2017-Mar-14 05:32N 59°53' E 030°12'0 0.0
2017-Mar-14 04:17N 59°53' E 030°12'0 0.0
2017-Mar-14 03:23N 59°53' E 030°12'0 0.0
2017-Mar-14 02:29N 59°53' E 030°12'0 0.0
2017-Mar-14 01:29N 59°53' E 030°12'0 0.0
2017-Mar-14 00:29N 59°53' E 030°12'0 0.0
2017-Mar-13 23:23N 59°53' E 030°12'0 0.0
2017-Mar-13 22:32N 59°53' E 030°12'0 0.0
2017-Mar-13 21:29N 59°53' E 030°12'0 0.0
2017-Mar-13 20:32N 59°53' E 030°12'0 0.0
2017-Mar-13 19:32N 59°53' E 030°12'0 0.0
2017-Mar-13 18:26N 59°53' E 030°12'0 0.0
2017-Mar-13 17:32N 59°53' E 030°12'0 0.0
2017-Mar-13 16:26N 59°53' E 030°12'0 0.0
2017-Mar-13 15:23N 59°53' E 030°12'0 0.0
2017-Mar-13 14:32N 59°53' E 030°12'0 0.0
2017-Mar-13 13:29N 59°53' E 030°12'0 0.0
2017-Mar-13 12:32N 59°53' E 030°12'0 0.0
2017-Mar-13 11:32N 59°53' E 030°12'0 0.0
2017-Mar-13 09:29N 59°53' E 030°12'0 0.0
2017-Mar-13 08:32N 59°53' E 030°12'0 0.0
2017-Mar-13 07:32N 59°53' E 030°12'0 0.0
2017-Mar-13 06:32N 59°53' E 030°12'0 0.0
2017-Mar-13 05:23N 59°53' E 030°12'0 0.0
2017-Mar-13 04:32N 59°53' E 030°12'0 0.0
2017-Mar-13 03:34N 59°53' E 030°12'2 1.8
2017-Mar-13 02:33N 59°54' E 030°09'1110.7
2017-Mar-13 01:33N 59°58' E 029°48'9 8.9
2017-Mar-13 00:31N 60°01' E 029°32'4 3.8
2017-Mar-12 23:30N 60°03' E 029°25'1 0.4
2017-Mar-12 22:09N 60°03' E 029°24'0 0.1
2017-Mar-12 21:32N 60°03' E 029°24'2 1.6
2017-Mar-12 20:17N 60°01' E 029°23'  

Dump ship's entire track history